TTW606 RCTP-RKPK
Flight info
| Callsign | TTW606 |
|---|---|
| Flight time | N/A |
| Altitude | 35000 |
| Route | PIANO1A/05R PIANO L3 SALMI Y743 BOLUT Y741 ATOTI Y722 SOSDO Y571 ANROD KEVOX3 |
| Aircraft | A320/M-SDE3FGHIRWY/LB1 |
Departure
| Time | N/A |
|---|---|
| Airport | Taiwan Taoyuan International Airport (RCTP) |
Arrival
| Time | 2026-05-04 13:14 |
|---|---|
| Airport | Gimhae International Airport (RKPK) |
| Time | Latitude | Longitude | Altitude | Speed | Heading |
|---|---|---|---|---|---|
| 2026-05-04 12:25 | 31.16446 | 125.67845 | 35190 ft | 502 kts | 9° |
| 2026-05-04 12:25 | 31.23021 | 125.70597 | 35232 ft | 502 kts | 9° |
| 2026-05-04 12:26 | 31.29583 | 125.73349 | 35187 ft | 500 kts | 9° |
| 2026-05-04 12:26 | 31.36083 | 125.76085 | 35175 ft | 500 kts | 9° |
| 2026-05-04 12:27 | 31.42639 | 125.78848 | 35190 ft | 501 kts | 9° |
| 2026-05-04 12:27 | 31.49194 | 125.81622 | 35196 ft | 500 kts | 9° |
| 2026-05-04 12:28 | 31.55750 | 125.84383 | 35189 ft | 500 kts | 9° |
| 2026-05-04 12:28 | 31.62298 | 125.87149 | 35186 ft | 500 kts | 9° |
| 2026-05-04 12:29 | 31.68868 | 125.89911 | 35185 ft | 502 kts | 9° |
| 2026-05-04 12:29 | 31.75412 | 125.92657 | 35185 ft | 503 kts | 9° |
| 2026-05-04 12:30 | 31.81997 | 125.95434 | 35188 ft | 503 kts | 10° |
| 2026-05-04 12:30 | 31.88594 | 125.98227 | 35180 ft | 505 kts | 9° |
| 2026-05-04 12:31 | 31.95205 | 126.01020 | 35182 ft | 505 kts | 9° |
| 2026-05-04 12:31 | 32.01813 | 126.03822 | 35178 ft | 505 kts | 9° |
| 2026-05-04 12:32 | 32.11711 | 126.08014 | 35176 ft | 507 kts | 9° |
| 2026-05-04 12:33 | 32.18348 | 126.10820 | 35176 ft | 507 kts | 9° |
| 2026-05-04 12:33 | 32.24995 | 126.13641 | 35169 ft | 508 kts | 10° |
| 2026-05-04 12:34 | 32.31654 | 126.16470 | 35178 ft | 509 kts | 10° |
| 2026-05-04 12:34 | 32.38311 | 126.19309 | 35177 ft | 509 kts | 10° |
| 2026-05-04 12:35 | 32.44974 | 126.22151 | 35170 ft | 508 kts | 10° |
| 2026-05-04 12:35 | 32.51587 | 126.24971 | 35165 ft | 509 kts | 10° |
| 2026-05-04 12:36 | 32.58254 | 126.27823 | 35173 ft | 510 kts | 10° |
| 2026-05-04 12:36 | 32.64924 | 126.30692 | 35167 ft | 510 kts | 10° |
| 2026-05-04 12:37 | 32.71590 | 126.33559 | 35168 ft | 510 kts | 10° |
| 2026-05-04 12:37 | 32.78264 | 126.36434 | 35173 ft | 510 kts | 10° |
| 2026-05-04 12:38 | 32.84871 | 126.39282 | 35171 ft | 507 kts | 11° |
| 2026-05-04 12:38 | 32.91503 | 126.42149 | 35173 ft | 507 kts | 11° |
| 2026-05-04 12:39 | 32.98107 | 126.45117 | 35171 ft | 513 kts | 17° |
| 2026-05-04 12:39 | 33.01256 | 126.47210 | 35173 ft | 524 kts | 27° |
| 2026-05-04 12:39 | 33.04158 | 126.49899 | 35173 ft | 532 kts | 35° |
| 2026-05-04 12:40 | 33.09757 | 126.55741 | 35162 ft | 537 kts | 35° |
| 2026-05-04 12:40 | 33.12566 | 126.58669 | 34919 ft | 536 kts | 35° |
| 2026-05-04 12:40 | 33.15380 | 126.61603 | 34308 ft | 538 kts | 36° |
| 2026-05-04 12:40 | 33.18151 | 126.64490 | 33822 ft | 534 kts | 36° |
| 2026-05-04 12:41 | 33.20934 | 126.67393 | 33335 ft | 529 kts | 36° |
| 2026-05-04 12:41 | 33.23688 | 126.70265 | 32851 ft | 524 kts | 35° |
| 2026-05-04 12:41 | 33.26412 | 126.73108 | 32670 ft | 513 kts | 35° |
| 2026-05-04 12:41 | 33.29065 | 126.75882 | 32478 ft | 502 kts | 35° |
| 2026-05-04 12:42 | 33.31677 | 126.78616 | 32203 ft | 495 kts | 35° |
| 2026-05-04 12:42 | 33.34256 | 126.81315 | 31851 ft | 490 kts | 35° |
| 2026-05-04 12:42 | 33.36812 | 126.83984 | 31460 ft | 486 kts | 34° |
| 2026-05-04 12:42 | 33.39357 | 126.86637 | 31072 ft | 483 kts | 34° |
| 2026-05-04 12:43 | 33.41881 | 126.89266 | 30686 ft | 480 kts | 34° |
| 2026-05-04 12:43 | 33.44356 | 126.91853 | 30308 ft | 477 kts | 34° |
| 2026-05-04 12:43 | 33.46846 | 126.94466 | 29960 ft | 473 kts | 35° |
| 2026-05-04 12:43 | 33.49300 | 126.97048 | 29635 ft | 467 kts | 36° |
| 2026-05-04 12:44 | 33.51727 | 126.99607 | 29255 ft | 462 kts | 35° |
| 2026-05-04 12:44 | 33.54134 | 127.02147 | 28825 ft | 459 kts | 35° |
| 2026-05-04 12:44 | 33.56518 | 127.04665 | 28494 ft | 455 kts | 35° |
| 2026-05-04 12:44 | 33.58784 | 127.07309 | 28158 ft | 455 kts | 43° |
| 2026-05-04 12:45 | 33.60889 | 127.10115 | 27828 ft | 450 kts | 43° |
| 2026-05-04 12:45 | 33.62966 | 127.12894 | 27567 ft | 444 kts | 44° |
| 2026-05-04 12:45 | 33.65012 | 127.15640 | 27254 ft | 439 kts | 44° |
| 2026-05-04 12:45 | 33.67034 | 127.18357 | 27128 ft | 435 kts | 44° |
| 2026-05-04 12:46 | 33.69027 | 127.21034 | 27164 ft | 436 kts | 44° |
| 2026-05-04 12:46 | 33.71047 | 127.23742 | 27144 ft | 436 kts | 43° |
| 2026-05-04 12:46 | 33.73078 | 127.26462 | 27161 ft | 438 kts | 43° |
| 2026-05-04 12:46 | 33.75117 | 127.29198 | 26960 ft | 438 kts | 44° |
| 2026-05-04 12:47 | 33.77132 | 127.31913 | 26731 ft | 433 kts | 44° |
| 2026-05-04 12:47 | 33.79124 | 127.34599 | 26483 ft | 428 kts | 44° |
| 2026-05-04 12:47 | 33.81097 | 127.37262 | 26236 ft | 424 kts | 44° |
| 2026-05-04 12:47 | 33.83051 | 127.39901 | 25991 ft | 421 kts | 44° |
| 2026-05-04 12:48 | 33.84990 | 127.42517 | 25749 ft | 417 kts | 44° |
| 2026-05-04 12:48 | 33.86914 | 127.45110 | 25506 ft | 414 kts | 44° |
| 2026-05-04 12:48 | 33.88824 | 127.47684 | 25255 ft | 410 kts | 44° |
| 2026-05-04 12:48 | 33.90719 | 127.50242 | 25032 ft | 407 kts | 44° |
| 2026-05-04 12:49 | 33.92593 | 127.52775 | 24805 ft | 403 kts | 44° |
| 2026-05-04 12:49 | 33.94450 | 127.55290 | 24570 ft | 400 kts | 44° |
| 2026-05-04 12:49 | 33.96293 | 127.57785 | 24341 ft | 397 kts | 44° |
| 2026-05-04 12:49 | 33.98092 | 127.60228 | 24110 ft | 394 kts | 44° |
| 2026-05-04 12:50 | 33.99901 | 127.62686 | 23879 ft | 391 kts | 44° |
| 2026-05-04 12:50 | 34.01695 | 127.65126 | 23638 ft | 387 kts | 44° |
| 2026-05-04 12:50 | 34.03478 | 127.67546 | 23362 ft | 385 kts | 44° |
| 2026-05-04 12:50 | 34.05250 | 127.69949 | 23103 ft | 382 kts | 44° |
| 2026-05-04 12:51 | 34.07009 | 127.72338 | 22824 ft | 380 kts | 44° |
| 2026-05-04 12:51 | 34.08760 | 127.74721 | 22551 ft | 379 kts | 44° |
| 2026-05-04 12:51 | 34.10436 | 127.77162 | 22289 ft | 380 kts | 54° |
| 2026-05-04 12:51 | 34.11488 | 127.80079 | 21941 ft | 381 kts | 76° |
| 2026-05-04 12:52 | 34.11923 | 127.83230 | 21527 ft | 380 kts | 81° |
| 2026-05-04 12:52 | 34.12257 | 127.86388 | 21126 ft | 378 kts | 82° |
| 2026-05-04 12:52 | 34.12576 | 127.89521 | 20739 ft | 375 kts | 82° |
| 2026-05-04 12:52 | 34.12883 | 127.92595 | 20371 ft | 373 kts | 82° |
| 2026-05-04 12:53 | 34.13187 | 127.95688 | 20000 ft | 370 kts | 82° |
| 2026-05-04 12:53 | 34.13486 | 127.98765 | 19650 ft | 368 kts | 82° |
| 2026-05-04 12:53 | 34.13778 | 128.01814 | 19320 ft | 365 kts | 82° |
| 2026-05-04 12:53 | 34.14064 | 128.04842 | 18980 ft | 362 kts | 82° |
| 2026-05-04 12:54 | 34.14364 | 128.07851 | 18632 ft | 359 kts | 77° |
| 2026-05-04 12:54 | 34.15204 | 128.10619 | 18293 ft | 348 kts | 54° |
| 2026-05-04 12:54 | 34.16693 | 128.12862 | 17897 ft | 340 kts | 43° |
| 2026-05-04 12:54 | 34.18309 | 128.14936 | 17520 ft | 338 kts | 42° |
| 2026-05-04 12:55 | 34.19929 | 128.16981 | 17155 ft | 335 kts | 41° |
| 2026-05-04 12:55 | 34.21538 | 128.19006 | 16805 ft | 333 kts | 41° |
| 2026-05-04 12:55 | 34.23135 | 128.21019 | 16440 ft | 331 kts | 41° |
| 2026-05-04 12:55 | 34.24700 | 128.22994 | 16107 ft | 329 kts | 41° |
| 2026-05-04 12:56 | 34.26278 | 128.24969 | 15818 ft | 325 kts | 41° |
| 2026-05-04 12:56 | 34.27850 | 128.26916 | 15501 ft | 322 kts | 41° |
| 2026-05-04 12:56 | 34.29410 | 128.28842 | 15180 ft | 319 kts | 41° |
| 2026-05-04 12:56 | 34.30961 | 128.30750 | 14873 ft | 317 kts | 41° |
| 2026-05-04 12:57 | 34.32501 | 128.32641 | 14558 ft | 315 kts | 41° |
| 2026-05-04 12:57 | 34.34035 | 128.34517 | 14239 ft | 312 kts | 41° |
| 2026-05-04 12:57 | 34.35560 | 128.36378 | 13932 ft | 310 kts | 41° |
| 2026-05-04 12:57 | 34.37075 | 128.38223 | 13588 ft | 308 kts | 41° |
| 2026-05-04 12:58 | 34.38584 | 128.40061 | 13225 ft | 307 kts | 41° |
| 2026-05-04 12:58 | 34.40065 | 128.41867 | 12872 ft | 306 kts | 41° |
| 2026-05-04 12:58 | 34.41555 | 128.43690 | 12520 ft | 304 kts | 41° |
| 2026-05-04 12:58 | 34.43043 | 128.45513 | 12168 ft | 303 kts | 41° |
| 2026-05-04 12:59 | 34.44516 | 128.47321 | 12030 ft | 301 kts | 41° |
| 2026-05-04 12:59 | 34.45996 | 128.49135 | 12049 ft | 304 kts | 41° |
| 2026-05-04 12:59 | 34.47483 | 128.50956 | 12049 ft | 304 kts | 41° |
| 2026-05-04 12:59 | 34.48968 | 128.52779 | 12052 ft | 304 kts | 41° |
| 2026-05-04 13:00 | 34.50453 | 128.54601 | 12052 ft | 304 kts | 41° |
| 2026-05-04 13:00 | 34.51939 | 128.56422 | 11951 ft | 302 kts | 41° |
| 2026-05-04 13:00 | 34.53591 | 128.57917 | 11612 ft | 293 kts | 20° |
| 2026-05-04 13:00 | 34.54868 | 128.58372 | 11383 ft | 287 kts | 6° |
| 2026-05-04 13:01 | 34.57510 | 128.58730 | 10911 ft | 285 kts | 1° |
| 2026-05-04 13:01 | 34.59481 | 128.58945 | 10580 ft | 284 kts | 1° |
| 2026-05-04 13:01 | 34.61418 | 128.59160 | 10256 ft | 283 kts | 1° |
| 2026-05-04 13:01 | 34.63371 | 128.59382 | 9946 ft | 281 kts | 1° |
| 2026-05-04 13:02 | 34.64686 | 128.59533 | 9701 ft | 280 kts | 1° |
| 2026-05-04 13:02 | 34.67244 | 128.59889 | 9246 ft | 281 kts | 11° |
| 2026-05-04 13:02 | 34.68473 | 128.60390 | 9020 ft | 282 kts | 17° |
| 2026-05-04 13:02 | 34.70920 | 128.61512 | 8593 ft | 280 kts | 18° |
| 2026-05-04 13:03 | 34.72120 | 128.62066 | 8435 ft | 278 kts | 18° |
| 2026-05-04 13:03 | 34.73923 | 128.62897 | 8111 ft | 276 kts | 18° |
| 2026-05-04 13:03 | 34.75715 | 128.63727 | 7770 ft | 275 kts | 18° |
| 2026-05-04 13:03 | 34.77499 | 128.64555 | 7452 ft | 274 kts | 18° |
| 2026-05-04 13:04 | 34.79848 | 128.65642 | 7052 ft | 272 kts | 19° |
| 2026-05-04 13:04 | 34.81616 | 128.66459 | 6727 ft | 271 kts | 19° |
| 2026-05-04 13:04 | 34.82809 | 128.67010 | 6503 ft | 271 kts | 19° |
| 2026-05-04 13:04 | 34.84565 | 128.67823 | 6164 ft | 270 kts | 19° |
| 2026-05-04 13:05 | 34.86307 | 128.68630 | 6027 ft | 265 kts | 19° |
| 2026-05-04 13:05 | 34.87969 | 128.69399 | 5972 ft | 254 kts | 19° |
| 2026-05-04 13:05 | 34.89590 | 128.70150 | 5841 ft | 246 kts | 19° |
| 2026-05-04 13:05 | 34.91160 | 128.70880 | 5711 ft | 238 kts | 20° |
| 2026-05-04 13:06 | 34.92676 | 128.71586 | 5577 ft | 229 kts | 19° |
| 2026-05-04 13:06 | 34.94134 | 128.72266 | 5444 ft | 220 kts | 20° |
| 2026-05-04 13:06 | 34.95537 | 128.72918 | 5274 ft | 213 kts | 19° |
| 2026-05-04 13:06 | 34.96913 | 128.73554 | 5045 ft | 210 kts | 20° |
| 2026-05-04 13:07 | 34.98276 | 128.74183 | 4793 ft | 209 kts | 20° |
| 2026-05-04 13:07 | 34.99627 | 128.74810 | 4523 ft | 207 kts | 20° |
| 2026-05-04 13:07 | 35.00888 | 128.75636 | 4231 ft | 207 kts | 38° |
| 2026-05-04 13:07 | 35.02004 | 128.76732 | 4079 ft | 206 kts | 36° |
| 2026-05-04 13:08 | 35.03146 | 128.77795 | 3950 ft | 206 kts | 36° |
| 2026-05-04 13:08 | 35.04290 | 128.78851 | 3832 ft | 206 kts | 36° |
| 2026-05-04 13:08 | 35.05427 | 128.79900 | 3703 ft | 204 kts | 35° |
| 2026-05-04 13:08 | 35.06545 | 128.80935 | 3580 ft | 204 kts | 34° |
| 2026-05-04 13:09 | 35.07671 | 128.81980 | 3458 ft | 203 kts | 34° |
| 2026-05-04 13:09 | 35.08792 | 128.83022 | 3336 ft | 202 kts | 35° |
| 2026-05-04 13:09 | 35.09905 | 128.84060 | 3206 ft | 200 kts | 35° |
| 2026-05-04 13:09 | 35.10989 | 128.85074 | 3075 ft | 193 kts | 34° |
| 2026-05-04 13:10 | 35.12023 | 128.86052 | 2961 ft | 183 kts | 34° |
| 2026-05-04 13:10 | 35.12995 | 128.86977 | 2828 ft | 172 kts | 34° |
| 2026-05-04 13:10 | 35.13894 | 128.87836 | 2709 ft | 156 kts | 33° |
| 2026-05-04 13:10 | 35.14704 | 128.88610 | 2682 ft | 140 kts | 33° |
| 2026-05-04 13:11 | 35.15468 | 128.89244 | 2481 ft | 129 kts | 21° |
| 2026-05-04 13:11 | 35.16314 | 128.89564 | 2083 ft | 127 kts | 5° |
| 2026-05-04 13:11 | 35.17191 | 128.89581 | 1714 ft | 126 kts | 351° |
| 2026-05-04 13:11 | 35.18055 | 128.89432 | 1471 ft | 128 kts | 350° |
| 2026-05-04 13:12 | 35.18951 | 128.89306 | 1312 ft | 130 kts | 355° |
| 2026-05-04 13:12 | 35.19816 | 128.89616 | 1155 ft | 135 kts | 31° |
| 2026-05-04 13:12 | 35.20585 | 128.90255 | 1052 ft | 133 kts | 22° |
| 2026-05-04 13:12 | 35.21421 | 128.90794 | 826 ft | 137 kts | 37° |
| 2026-05-04 13:13 | 35.21930 | 128.91743 | 671 ft | 137 kts | 84° |
| 2026-05-04 13:13 | 35.21653 | 128.92828 | 639 ft | 140 kts | 130° |
| 2026-05-04 13:13 | 35.20792 | 128.93323 | 437 ft | 140 kts | 174° |
| 2026-05-04 13:13 | 35.19824 | 128.93441 | 257 ft | 141 kts | 172° |
| 2026-05-04 13:14 | 35.18868 | 128.93575 | 66 ft | 140 kts | 172° |
| 2026-05-04 13:14 | 35.17957 | 128.93705 | 23 ft | 115 kts | 175° |
| 2026-05-04 13:14 | 35.17311 | 128.93778 | 26 ft | 67 kts | 174° |
| 2026-05-04 13:14 | 35.17084 | 128.93806 | 24 ft | 19 kts | 173° |
| 2026-05-04 13:15 | 35.16962 | 128.93851 | 24 ft | 17 kts | 131° |
| 2026-05-04 13:15 | 35.16951 | 128.93974 | 21 ft | 16 kts | 82° |
| 2026-05-04 13:15 | 35.16967 | 128.94113 | 24 ft | 17 kts | 85° |
| 2026-05-04 13:15 | 35.16978 | 128.94267 | 23 ft | 19 kts | 84° |
| 2026-05-04 13:16 | 35.16992 | 128.94416 | 23 ft | 10 kts | 83° |
| 2026-05-04 13:16 | 35.17016 | 128.94496 | 23 ft | 11 kts | 34° |
| 2026-05-04 13:16 | 35.17105 | 128.94491 | 25 ft | 15 kts | 354° |
| 2026-05-04 13:16 | 35.17216 | 128.94477 | 23 ft | 16 kts | 354° |
| 2026-05-04 13:17 | 35.17307 | 128.94466 | 23 ft | 12 kts | 354° |
| 2026-05-04 13:17 | 35.17351 | 128.94483 | 23 ft | 5 kts | 87° |
| 2026-05-04 13:17 | 35.17329 | 128.94528 | 23 ft | 6 kts | 109° |
| 2026-05-04 13:17 | 35.17317 | 128.94562 | 23 ft | 0 kts | 114° |